Time;durP1;ratioP1;P1;durP2;ratioP2;P2;SDS_P1;SDS_P2;PMS_P1;PMS_P2;Temp;Humidity;BMP_temperature;BMP_pressure;BME280_temperature;BME280_humidity;BME280_pressure;Samples;Min_cycle;Max_cycle;Signal;HPM_P1;HPM_P2
2021/11/03 00:02:10;;;;;;;0.83;0.83;;;;;;;6.02;88.70;94971.25;5037578;28;20205;-69
2021/11/03 00:04:39;;;;;;;0.70;0.70;;;;;;;5.99;87.47;94969.00;5034681;28;20776;-68
2021/11/03 00:07:06;;;;;;;0.80;0.80;;;;;;;5.99;88.19;94969.00;5036669;28;20247;-68
2021/11/03 00:09:33;;;;;;;1.47;1.20;;;;;;;5.80;89.26;94959.88;5037046;28;20212;-68
2021/11/03 00:11:59;;;;;;;1.07;1.00;;;;;;;5.62;90.54;94955.94;5037037;28;20201;-69
2021/11/03 00:14:27;;;;;;;1.57;1.07;;;;;;;6.00;89.67;94944.47;5037212;28;20224;-68
2021/11/03 00:16:54;;;;;;;1.80;1.03;;;;;;;5.87;88.23;94954.72;5036292;28;20728;-68
2021/11/03 00:19:20;;;;;;;0.80;0.80;;;;;;;5.75;87.65;94953.53;5036870;28;20205;-68
2021/11/03 00:21:47;;;;;;;0.97;0.97;;;;;;;5.78;87.31;94950.56;5036763;28;20205;-69
2021/11/03 00:24:13;;;;;;;0.93;0.87;;;;;;;5.64;88.83;94959.22;5037330;28;20669;-69
2021/11/03 00:26:40;;;;;;;1.17;0.97;;;;;;;5.65;88.28;94959.03;5033263;28;20418;-69
2021/11/03 00:29:06;;;;;;;1.53;1.30;;;;;;;5.49;87.65;94963.59;5036855;28;20209;-69
2021/11/03 00:31:34;;;;;;;0.67;0.63;;;;;;;5.81;86.52;94952.84;5037017;28;20216;-68
2021/11/03 00:34:01;;;;;;;3.43;0.73;;;;;;;5.54;86.72;94963.88;5036953;28;20587;-71
2021/11/03 00:36:27;;;;;;;1.17;1.07;;;;;;;5.46;87.59;94956.91;5036237;28;20229;-71
2021/11/03 00:38:54;;;;;;;0.47;0.47;;;;;;;5.37;88.35;94967.59;5036853;28;20248;-70
2021/11/03 00:41:20;;;;;;;0.63;0.63;;;;;;;5.33;87.53;94968.94;5036774;28;20841;-71
2021/11/03 00:43:47;;;;;;;0.70;0.70;;;;;;;5.30;86.06;94964.06;5036728;28;20201;-71
2021/11/03 00:46:13;;;;;;;0.40;0.40;;;;;;;5.31;86.88;94963.09;5035959;28;20205;-71
2021/11/03 00:48:41;;;;;;;0.87;0.87;;;;;;;5.47;87.71;94963.75;5036371;28;20228;-71
2021/11/03 00:51:09;;;;;;;1.83;1.10;;;;;;;5.10;89.12;94959.50;5036465;28;20208;-72
2021/11/03 00:53:35;;;;;;;1.20;1.00;;;;;;;5.01;88.86;94961.34;5036503;28;20207;-71
2021/11/03 00:56:02;;;;;;;1.37;1.03;;;;;;;5.05;88.45;94956.59;5036305;28;20311;-71
2021/11/03 00:58:28;;;;;;;0.63;0.63;;;;;;;5.05;88.84;94957.44;5036506;28;20221;-70
2021/11/03 01:00:55;;;;;;;0.50;0.50;;;;;;;4.94;88.56;94944.78;5036234;28;20787;-70
2021/11/03 01:03:21;;;;;;;1.33;1.23;;;;;;;5.13;88.26;94953.91;5036858;28;20201;-71
2021/11/03 01:05:49;;;;;;;0.70;0.70;;;;;;;5.38;88.34;94947.53;5036309;28;20197;-71
2021/11/03 01:08:16;;;;;;;0.40;0.40;;;;;;;4.81;89.26;94948.94;5040215;28;20224;-70
2021/11/03 01:10:45;;;;;;;0.90;0.90;;;;;;;5.07;89.07;94957.25;5040712;28;20209;-70
2021/11/03 01:13:12;;;;;;;0.77;0.77;;;;;;;4.81;89.20;94961.19;5040833;28;20208;-71
2021/11/03 01:15:39;;;;;;;0.60;0.60;;;;;;;4.82;89.68;94966.22;5039534;28;20229;-71
2021/11/03 01:18:05;;;;;;;0.50;0.50;;;;;;;4.80;90.04;94962.16;5040824;28;20241;-71
2021/11/03 01:20:33;;;;;;;1.27;1.00;;;;;;;5.06;91.26;94951.19;5040775;28;20216;-71
2021/11/03 01:23:01;;;;;;;4.00;1.33;;;;;;;5.28;92.75;94950.38;5040016;28;20207;-71
2021/11/03 01:25:28;;;;;;;0.70;0.70;;;;;;;5.22;92.52;94945.88;5036303;28;21085;-71
2021/11/03 01:27:55;;;;;;;0.97;0.87;;;;;;;5.22;92.48;94943.25;5040830;28;20224;-71
2021/11/03 01:30:22;;;;;;;1.57;1.13;;;;;;;4.97;92.86;94933.97;5039754;28;20201;-71
2021/11/03 01:32:49;;;;;;;1.67;0.90;;;;;;;4.99;91.40;94920.75;5039594;28;20197;-71
2021/11/03 01:35:17;;;;;;;1.10;1.00;;;;;;;5.25;90.87;94910.75;5040136;28;20568;-71
2021/11/03 01:37:44;;;;;;;0.90;0.80;;;;;;;5.19;91.18;94907.03;5039807;28;20257;-70
2021/11/03 01:40:16;;;;;;;1.93;1.37;;;;;;;5.40;91.37;94898.53;5039907;28;20213;-71
2021/11/03 01:42:43;;;;;;;3.30;0.83;;;;;;;5.06;91.75;94896.38;5040282;28;20669;-71
2021/11/03 01:45:13;;;;;;;1.97;1.73;;;;;;;5.15;92.25;94890.09;5040050;28;20588;-71
2021/11/03 01:47:49;;;;;;;1.00;0.97;;;;;;;5.01;91.49;94903.13;5038641;28;21142;-71
2021/11/03 01:50:25;;;;;;;0.80;0.80;;;;;;;5.21;90.81;94894.63;5040156;28;20227;-71
2021/11/03 01:52:56;;;;;;;0.93;0.83;;;;;;;5.26;90.54;94896.72;5039762;28;20716;-71
2021/11/03 01:55:27;;;;;;;0.97;0.80;;;;;;;5.43;89.32;94884.13;5039287;28;20972;-70
2021/11/03 01:57:59;;;;;;;0.60;0.60;;;;;;;5.49;89.83;94882.59;5039678;28;20350;-71
2021/11/03 02:00:28;;;;;;;0.87;0.83;;;;;;;5.25;89.90;94875.00;5039437;28;20212;-70
2021/11/03 02:02:59;;;;;;;1.17;1.07;;;;;;;5.35;89.52;94862.50;5039553;28;20221;-71
2021/11/03 02:05:26;;;;;;;1.07;0.93;;;;;;;5.15;89.33;94848.31;5039195;28;20197;-68
2021/11/03 02:07:54;;;;;;;1.20;0.97;;;;;;;5.32;89.81;94846.38;5039671;28;20224;-69
2021/11/03 02:10:21;;;;;;;0.87;0.63;;;;;;;5.32;90.10;94844.59;5039443;28;20201;-69
2021/11/03 02:12:49;;;;;;;0.50;0.50;;;;;;;5.47;91.09;94840.16;5039415;28;20204;-69
2021/11/03 02:15:17;;;;;;;1.70;0.67;;;;;;;5.54;90.72;94849.72;5039217;28;20689;-69
2021/11/03 02:17:44;;;;;;;1.17;1.07;;;;;;;5.63;89.59;94845.22;5037855;28;20255;-69
2021/11/03 02:20:13;;;;;;;0.53;0.53;;;;;;;5.80;90.36;94849.28;5039231;28;20228;-69
2021/11/03 02:22:48;;;;;;;11.13;0.60;;;;;;;5.95;90.32;94857.94;5038953;28;20212;-69
2021/11/03 02:25:18;;;;;;;0.57;0.57;;;;;;;5.73;91.23;94853.59;5038929;28;21527;-68
2021/11/03 02:27:48;;;;;;;0.93;0.90;;;;;;;5.64;91.22;94858.09;5037073;28;20926;-68
2021/11/03 02:30:22;;;;;;;1.00;0.97;;;;;;;5.57;90.97;94859.00;5039908;28;20209;-69
2021/11/03 02:32:54;;;;;;;0.97;0.67;;;;;;;5.68;90.78;94863.78;5038465;28;20721;-69
2021/11/03 02:35:21;;;;;;;0.73;0.70;;;;;;;5.52;90.63;94869.19;5038766;28;20232;-69
2021/11/03 02:37:49;;;;;;;0.90;0.83;;;;;;;5.55;90.87;94868.84;5038768;28;20324;-69
2021/11/03 02:40:29;;;;;;;0.87;0.87;;;;;;;5.72;91.51;94859.81;5038856;28;21273;-68
2021/11/03 02:42:59;;;;;;;0.80;0.70;;;;;;;5.62;90.26;94859.28;5038488;28;20208;-68
2021/11/03 02:45:32;;;;;;;0.60;0.60;;;;;;;5.55;90.01;94853.16;5038072;28;20197;-68
2021/11/03 02:47:59;;;;;;;0.90;0.63;;;;;;;5.40;90.30;94854.94;5038686;28;20598;-68
2021/11/03 02:50:25;;;;;;;1.03;0.67;;;;;;;5.49;90.21;94851.25;5038225;28;20218;-69
2021/11/03 02:52:52;;;;;;;1.70;1.37;;;;;;;5.27;90.83;94859.97;5038950;28;20209;-70
2021/11/03 02:55:18;;;;;;;2.63;1.03;;;;;;;5.25;91.82;94851.50;5038813;28;20229;-69
2021/11/03 02:57:46;;;;;;;1.03;1.03;;;;;;;5.59;91.07;94838.75;5037727;28;20221;-69
2021/11/03 03:00:17;;;;;;;0.60;0.60;;;;;;;5.42;91.63;94834.66;5038505;28;20205;-69
2021/11/03 03:02:44;;;;;;;1.03;1.00;;;;;;;5.36;91.22;94839.81;5039178;28;20221;-69
2021/11/03 03:05:11;;;;;;;1.40;1.33;;;;;;;5.47;91.04;94835.78;5038109;28;20208;-69
2021/11/03 03:07:38;;;;;;;0.90;0.77;;;;;;;5.50;91.53;94821.53;5037317;28;20225;-69
2021/11/03 03:10:05;;;;;;;1.17;1.07;;;;;;;5.28;92.57;94832.06;5038919;28;20212;-69
2021/11/03 03:12:33;;;;;;;1.10;0.77;;;;;;;5.42;92.71;94833.88;5038175;28;20213;-69
2021/11/03 03:15:01;;;;;;;0.60;0.60;;;;;;;5.72;91.72;94829.25;5037872;28;21254;-68
2021/11/03 03:17:28;;;;;;;1.47;1.37;;;;;;;5.39;91.37;94839.47;5037439;28;20227;-69
2021/11/03 03:19:55;;;;;;;1.17;1.03;;;;;;;5.42;91.50;94824.22;5038521;28;20875;-69
2021/11/03 03:22:21;;;;;;;1.00;0.90;;;;;;;5.55;90.58;94824.44;5038050;28;20216;-69
2021/11/03 03:24:48;;;;;;;1.40;1.30;;;;;;;5.58;90.50;94826.66;5038366;28;20204;-69
2021/11/03 03:27:15;;;;;;;0.80;0.80;;;;;;;5.59;90.87;94823.06;5034081;28;20703;-69
2021/11/03 03:29:42;;;;;;;1.13;0.97;;;;;;;5.58;91.48;94818.81;5036786;28;20210;-70
2021/11/03 03:32:10;;;;;;;1.37;1.13;;;;;;;5.86;91.82;94823.25;5037894;28;20212;-69
2021/11/03 03:34:37;;;;;;;2.23;1.40;;;;;;;5.78;91.58;94822.53;5038364;28;20731;-69
2021/11/03 03:37:04;;;;;;;1.80;1.63;;;;;;;5.69;91.24;94821.78;5036904;28;20594;-70
2021/11/03 03:39:31;;;;;;;0.90;0.80;;;;;;;5.64;91.36;94823.34;5034520;28;20212;-69
2021/11/03 03:42:01;;;;;;;0.93;0.93;;;;;;;5.75;91.37;94825.47;5037588;28;20216;-69
2021/11/03 03:44:27;;;;;;;0.87;0.83;;;;;;;5.37;92.48;94820.53;5037625;28;20205;-70
2021/11/03 03:46:54;;;;;;;0.93;0.87;;;;;;;5.43;92.11;94812.00;5037475;28;20213;-69
2021/11/03 03:49:22;;;;;;;2.53;1.17;;;;;;;5.43;93.04;94815.41;5037725;28;20255;-68
2021/11/03 03:51:49;;;;;;;3.53;1.03;;;;;;;5.46;91.51;94808.03;5036841;28;20202;-68
2021/11/03 03:54:16;;;;;;;2.00;1.27;;;;;;;5.66;91.09;94803.06;5037510;28;20711;-69
2021/11/03 03:56:42;;;;;;;1.07;0.77;;;;;;;5.52;91.75;94814.31;5036096;28;20713;-69
2021/11/03 03:59:09;;;;;;;1.00;1.00;;;;;;;5.66;90.98;94818.72;5037277;28;20573;-68
2021/11/03 04:01:36;;;;;;;1.63;1.43;;;;;;;5.66;90.90;94823.94;5038401;28;20888;-69
2021/11/03 04:04:02;;;;;;;1.03;1.03;;;;;;;5.52;91.21;94820.38;5037083;28;20804;-69
2021/11/03 04:06:30;;;;;;;1.47;1.23;;;;;;;5.78;91.27;94812.06;5036092;28;20227;-69
2021/11/03 04:08:57;;;;;;;1.17;1.07;;;;;;;5.61;91.12;94814.06;5037939;28;20240;-68
2021/11/03 04:11:23;;;;;;;1.43;1.33;;;;;;;5.46;91.69;94809.84;5037920;28;20216;-70
2021/11/03 04:13:50;;;;;;;0.80;0.80;;;;;;;5.55;91.56;94804.31;5037061;28;20210;-69
2021/11/03 04:16:16;;;;;;;1.27;0.70;;;;;;;5.37;92.25;94810.88;5036354;28;20228;-69
2021/11/03 04:18:43;;;;;;;3.90;1.37;;;;;;;5.50;91.36;94801.44;5036664;28;20228;-69
2021/11/03 04:21:10;;;;;;;1.33;1.23;;;;;;;5.45;91.30;94797.75;5037006;28;20212;-69
2021/11/03 04:23:38;;;;;;;1.13;0.77;;;;;;;5.54;91.54;94801.91;5037264;28;20202;-68
2021/11/03 04:26:05;;;;;;;1.40;1.30;;;;;;;5.48;91.18;94800.00;5034398;28;20205;-69
2021/11/03 04:28:32;;;;;;;1.97;1.43;;;;;;;5.40;91.28;94810.53;5036959;28;20275;-69
2021/11/03 04:30:58;;;;;;;1.03;0.90;;;;;;;5.30;90.87;94809.19;5037509;28;20205;-69
2021/11/03 04:33:25;;;;;;;1.23;0.90;;;;;;;5.23;91.36;94803.88;5037014;28;20248;-69
2021/11/03 04:35:52;;;;;;;3.63;2.20;;;;;;;5.13;91.90;94799.88;5035816;28;20240;-68
2021/11/03 04:38:19;;;;;;;1.57;0.97;;;;;;;5.16;92.45;94797.75;5036747;28;20232;-69
2021/11/03 04:40:47;;;;;;;1.80;1.27;;;;;;;5.36;93.17;94796.22;5036458;28;20213;-69
2021/11/03 04:43:13;;;;;;;1.33;1.23;;;;;;;5.32;91.88;94802.81;5036525;28;20212;-69
2021/11/03 04:45:40;;;;;;;0.97;0.97;;;;;;;5.35;91.87;94810.28;5036137;28;20220;-68
2021/11/03 04:48:07;;;;;;;0.87;0.87;;;;;;;5.27;92.75;94796.47;5037021;28;20228;-69
2021/11/03 04:50:35;;;;;;;0.67;0.63;;;;;;;5.20;92.80;94785.94;5036152;28;20223;-69
2021/11/03 04:53:04;;;;;;;1.17;1.07;;;;;;;5.31;92.73;94790.72;5037033;28;20201;-69
2021/11/03 04:55:31;;;;;;;1.33;0.90;;;;;;;5.46;91.22;94789.75;5036013;28;20205;-68
2021/11/03 04:57:59;;;;;;;2.17;1.07;;;;;;;5.48;91.02;94784.31;5036622;28;20233;-69
2021/11/03 05:00:30;;;;;;;1.20;1.10;;;;;;;5.48;91.44;94773.88;5036287;28;20209;-68
2021/11/03 05:02:57;;;;;;;1.57;0.80;;;;;;;5.32;90.88;94778.47;5036283;28;20204;-69
2021/11/03 05:05:24;;;;;;;1.63;1.20;;;;;;;5.43;91.26;94779.66;5036216;28;20232;-68
2021/11/03 05:07:52;;;;;;;0.97;0.90;;;;;;;5.15;91.81;94777.03;5036315;28;20221;-68
2021/11/03 05:10:20;;;;;;;1.50;1.20;;;;;;;5.41;91.58;94778.22;5036708;28;20641;-68
2021/11/03 05:12:48;;;;;;;2.03;1.50;;;;;;;5.17;92.28;94777.69;5036720;28;20684;-68
2021/11/03 05:15:16;;;;;;;0.77;0.77;;;;;;;5.42;92.00;94773.78;5036140;28;20216;-69
2021/11/03 05:17:43;;;;;;;2.00;1.03;;;;;;;5.01;91.88;94775.22;5034855;28;20240;-69
2021/11/03 05:20:11;;;;;;;0.93;0.93;;;;;;;4.98;92.80;94771.19;5037218;28;20212;-69
2021/11/03 05:22:38;;;;;;;0.93;0.87;;;;;;;5.08;92.01;94776.16;5036938;28;20661;-69
2021/11/03 05:25:06;;;;;;;1.80;1.67;;;;;;;5.07;92.42;94772.72;5035991;28;20212;-69
2021/11/03 05:27:32;;;;;;;0.70;0.70;;;;;;;4.81;92.06;94770.69;5032480;28;20228;-69
2021/11/03 05:29:59;;;;;;;2.63;1.40;;;;;;;4.83;91.93;94765.13;5036848;28;20205;-69
2021/11/03 05:32:28;;;;;;;0.83;0.80;;;;;;;5.20;91.38;94756.44;5036052;28;20198;-69
2021/11/03 05:34:54;;;;;;;0.67;0.67;;;;;;;4.98;91.28;94763.34;5035623;28;20232;-69
2021/11/03 05:37:21;;;;;;;4.03;1.00;;;;;;;5.03;90.81;94755.00;5035601;28;20237;-68
2021/11/03 05:39:48;;;;;;;0.83;0.63;;;;;;;5.06;90.82;94747.59;5036284;28;20201;-69
2021/11/03 05:42:14;;;;;;;0.43;0.43;;;;;;;5.05;89.91;94740.78;5035455;28;20670;-69
2021/11/03 05:44:41;;;;;;;3.50;1.17;;;;;;;4.84;90.32;94751.09;5036280;28;20698;-68
2021/11/03 05:47:08;;;;;;;0.83;0.60;;;;;;;5.04;89.89;94746.97;5035534;28;20221;-69
2021/11/03 05:49:36;;;;;;;2.67;1.57;;;;;;;5.08;90.14;94747.44;5035687;28;20217;-68
2021/11/03 05:52:05;;;;;;;0.80;0.80;;;;;;;5.06;90.76;94749.41;5036162;28;20935;-68
2021/11/03 05:54:32;;;;;;;1.20;1.10;;;;;;;4.97;90.43;94750.47;5039426;28;20221;-69
2021/11/03 05:57:00;;;;;;;1.43;1.33;;;;;;;5.10;90.14;94741.03;5038621;28;20232;-69
2021/11/03 05:59:27;;;;;;;1.43;1.00;;;;;;;4.79;90.72;94736.97;5039749;28;20205;-69
2021/11/03 06:01:53;;;;;;;1.07;0.90;;;;;;;4.93;89.97;94728.34;5039615;28;20205;-69
2021/11/03 06:04:20;;;;;;;0.90;0.90;;;;;;;4.61;91.75;94730.44;5039749;28;20217;-70
2021/11/03 06:06:48;;;;;;;1.10;0.80;;;;;;;5.10;91.97;94719.34;5038671;28;20205;-70
2021/11/03 06:09:15;;;;;;;1.43;1.30;;;;;;;4.96;90.84;94720.97;5039474;28;20201;-69
2021/11/03 06:11:44;;;;;;;1.07;0.90;;;;;;;5.25;91.17;94714.94;5039637;28;20571;-69
2021/11/03 06:14:11;;;;;;;3.70;2.17;;;;;;;4.90;91.97;94713.84;5039393;28;20591;-70
2021/11/03 06:16:38;;;;;;;3.17;1.17;;;;;;;4.87;92.02;94709.00;5038180;28;20225;-70
2021/11/03 06:19:06;;;;;;;1.57;1.47;;;;;;;5.12;91.58;94701.72;5039221;28;20217;-70
2021/11/03 06:21:32;;;;;;;1.67;1.50;;;;;;;5.02;91.70;94695.94;5039356;28;20240;-70
2021/11/03 06:24:00;;;;;;;6.57;1.57;;;;;;;5.30;92.10;94689.09;5039285;28;20223;-70
2021/11/03 06:26:27;;;;;;;1.13;1.03;;;;;;;5.09;92.09;94674.16;5038292;28;20212;-70
2021/11/03 06:28:54;;;;;;;0.83;0.83;;;;;;;5.22;91.81;94663.06;5039132;28;20240;-70
2021/11/03 06:31:20;;;;;;;2.50;1.40;;;;;;;5.07;92.05;94657.06;5039299;28;20205;-70
2021/11/03 06:33:47;;;;;;;1.43;1.20;;;;;;;4.81;93.44;94656.69;5039516;28;20212;-70
2021/11/03 06:36:15;;;;;;;1.43;1.33;;;;;;;4.76;94.72;94671.28;5038239;28;20572;-70
2021/11/03 06:38:41;;;;;;;1.93;1.60;;;;;;;4.60;95.72;94663.66;5038348;28;20225;-70
2021/11/03 06:41:11;;;;;;;1.47;0.93;;;;;;;4.77;96.69;94667.69;5037979;28;20212;-70
2021/11/03 06:43:38;;;;;;;1.53;1.43;;;;;;;4.79;96.01;94670.94;5038736;28;20668;-70
2021/11/03 06:46:05;;;;;;;1.80;1.27;;;;;;;4.93;96.19;94663.09;5038254;28;20200;-69
2021/11/03 06:48:31;;;;;;;1.47;1.30;;;;;;;4.95;95.63;94663.72;5039044;28;20225;-70
2021/11/03 06:50:58;;;;;;;3.77;1.90;;;;;;;5.19;95.00;94666.03;5038311;28;20216;-71
2021/11/03 06:53:26;;;;;;;1.37;1.27;;;;;;;5.29;94.92;94677.00;5039025;28;20216;-70
2021/11/03 06:55:54;;;;;;;1.93;1.50;;;;;;;5.30;95.28;94683.84;5038452;28;20247;-70
2021/11/03 06:58:24;;;;;;;2.37;2.10;;;;;;;5.34;95.56;94690.34;5038258;28;20229;-70
2021/11/03 07:00:53;;;;;;;1.40;1.30;;;;;;;5.57;95.28;94678.75;5038543;28;20214;-70
2021/11/03 07:03:22;;;;;;;1.93;0.73;;;;;;;5.36;95.79;94677.88;5038536;28;20208;-70
2021/11/03 07:05:51;;;;;;;0.67;0.67;;;;;;;5.45;95.66;94682.84;5037273;28;20197;-70
2021/11/03 07:08:19;;;;;;;1.03;1.00;;;;;;;5.48;94.69;94683.25;5038447;28;20236;-70
2021/11/03 07:10:49;;;;;;;2.10;1.30;;;;;;;5.72;94.91;94676.91;5038304;28;20292;-70
2021/11/03 07:13:18;;;;;;;1.33;1.20;;;;;;;5.56;94.82;94672.72;5038368;28;20205;-70
2021/11/03 07:15:47;;;;;;;0.97;0.87;;;;;;;5.92;93.81;94677.94;5037474;28;20213;-70
2021/11/03 07:18:13;;;;;;;1.17;1.10;;;;;;;5.75;93.71;94676.53;5037822;28;20233;-70
2021/11/03 07:20:42;;;;;;;1.50;1.40;;;;;;;6.07;92.96;94677.69;5037992;28;20216;-70
2021/11/03 07:23:09;;;;;;;1.83;0.83;;;;;;;6.08;91.97;94686.34;5038304;28;20300;-70
2021/11/03 07:25:35;;;;;;;5.33;2.47;;;;;;;6.11;92.16;94692.00;5037576;28;20208;-70
2021/11/03 07:28:02;;;;;;;2.63;1.27;;;;;;;5.68;93.92;94670.44;5038110;28;20221;-70
2021/11/03 07:30:31;;;;;;;4.33;1.80;;;;;;;6.30;92.05;94665.22;5038362;28;20204;-70
2021/11/03 07:32:59;;;;;;;1.50;1.33;;;;;;;6.33;91.13;94656.97;5037634;28;20201;-70
2021/11/03 07:35:27;;;;;;;2.37;1.60;;;;;;;6.28;92.75;94658.56;5037387;28;20201;-70
2021/11/03 07:37:54;;;;;;;0.80;0.80;;;;;;;6.04;94.40;94671.22;5037573;28;20232;-71
2021/11/03 07:40:24;;;;;;;1.23;1.13;;;;;;;6.24;93.59;94655.50;5038086;28;20205;-70
2021/11/03 07:42:51;;;;;;;0.80;0.80;;;;;;;6.37;93.02;94657.44;5037845;28;20212;-70
2021/11/03 07:45:17;;;;;;;1.00;0.80;;;;;;;6.56;92.93;94654.16;5037404;28;20220;-70
2021/11/03 07:47:44;;;;;;;1.13;1.03;;;;;;;6.34;93.41;94653.38;5036290;28;20230;-70
2021/11/03 07:50:18;;;;;;;1.00;0.90;;;;;;;6.82;91.73;94644.63;5037494;28;20213;-71
2021/11/03 07:52:44;;;;;;;3.00;1.47;;;;;;;6.30;93.04;94635.63;5037314;28;20212;-70
2021/11/03 07:55:11;;;;;;;1.93;1.33;;;;;;;6.65;92.82;94640.72;5037322;28;20205;-70
2021/11/03 07:57:38;;;;;;;2.10;1.67;;;;;;;6.43;91.99;94643.56;5036682;28;20237;-70
2021/11/03 08:00:05;;;;;;;1.77;1.40;;;;;;;6.34;92.99;94639.47;5037371;28;20205;-71
2021/11/03 08:02:32;;;;;;;1.73;1.00;;;;;;;6.44;93.27;94634.72;5037407;28;20209;-70
2021/11/03 08:04:58;;;;;;;3.27;1.97;;;;;;;6.52;94.50;94643.25;5037702;28;20209;-70
2021/11/03 08:07:26;;;;;;;1.57;1.30;;;;;;;6.42;96.34;94641.97;5036455;28;20225;-71
2021/11/03 08:09:53;;;;;;;0.87;0.80;;;;;;;6.48;95.18;94655.09;5036200;28;20208;-71
2021/11/03 08:12:19;;;;;;;1.97;1.77;;;;;;;6.77;94.97;94653.09;5037314;28;20205;-71
2021/11/03 08:14:46;;;;;;;4.80;1.17;;;;;;;6.41;94.35;94656.03;5037590;28;20205;-71
2021/11/03 08:17:16;;;;;;;1.43;0.97;;;;;;;7.20;92.62;94659.75;5035121;28;20236;-70
2021/11/03 08:19:50;;;;;;;1.37;1.27;;;;;;;7.28;92.64;94651.75;5037066;28;20422;-70
2021/11/03 08:22:21;;;;;;;6.23;1.77;;;;;;;7.13;93.26;94631.91;5037049;28;20891;-71
2021/11/03 08:24:49;;;;;;;2.07;1.27;;;;;;;7.43;92.98;94631.44;5036772;28;20213;-70
2021/11/03 08:27:17;;;;;;;4.60;1.60;;;;;;;6.95;93.13;94635.06;5036628;28;20217;-71
2021/11/03 08:29:44;;;;;;;3.83;2.37;;;;;;;7.19;92.15;94629.31;5036923;28;20206;-70
2021/11/03 08:32:14;;;;;;;1.03;0.93;;;;;;;7.44;91.63;94631.22;5036636;28;20206;-70
2021/11/03 08:34:41;;;;;;;1.17;1.07;;;;;;;7.35;92.06;94631.59;5036386;28;20220;-70
2021/11/03 08:37:11;;;;;;;3.23;1.33;;;;;;;7.69;91.64;94640.19;5036123;28;20232;-71
2021/11/03 08:39:40;;;;;;;1.83;1.50;;;;;;;7.78;92.17;94638.16;5036576;28;20205;-70
2021/11/03 08:42:09;;;;;;;3.80;2.17;;;;;;;8.04;92.92;94639.03;5036901;28;20201;-70
2021/11/03 08:44:37;;;;;;;3.10;1.60;;;;;;;8.04;91.12;94633.78;5036998;28;20205;-70
2021/11/03 08:47:04;;;;;;;1.70;1.47;;;;;;;8.59;89.68;94635.03;5035961;28;20228;-70
2021/11/03 08:49:32;;;;;;;3.03;1.87;;;;;;;8.63;88.92;94628.38;5036038;28;20221;-70
2021/11/03 08:51:58;;;;;;;4.23;1.93;;;;;;;8.55;89.24;94627.78;5036336;28;20712;-70
2021/11/03 08:54:25;;;;;;;1.70;1.60;;;;;;;8.48;89.01;94634.03;5036975;28;20538;-70
2021/11/03 08:56:53;;;;;;;2.63;1.83;;;;;;;8.41;90.24;94644.53;5035493;28;20213;-70
2021/11/03 08:59:20;;;;;;;2.13;1.87;;;;;;;8.49;91.14;94639.09;5036619;28;20215;-70
2021/11/03 09:01:47;;;;;;;2.33;1.73;;;;;;;7.89;92.05;94646.25;5036684;28;20201;-71
2021/11/03 09:04:13;;;;;;;6.27;1.97;;;;;;;7.85;92.14;94626.69;5036627;28;20213;-70
2021/11/03 09:06:40;;;;;;;1.93;1.77;;;;;;;8.09;90.66;94616.44;5035395;28;20201;-70
2021/11/03 09:09:07;;;;;;;3.03;2.17;;;;;;;8.17;89.46;94618.91;5036679;28;20205;-70
2021/11/03 09:11:34;;;;;;;2.77;2.07;;;;;;;8.31;89.34;94625.78;5034545;28;20209;-70
2021/11/03 09:14:00;;;;;;;2.40;1.47;;;;;;;8.01;92.08;94619.25;5035514;28;20209;-70
2021/11/03 09:16:29;;;;;;;1.67;1.57;;;;;;;8.82;89.72;94624.09;5036171;28;20585;-70
2021/11/03 09:18:55;;;;;;;4.80;2.00;;;;;;;8.64;89.66;94632.63;5036199;28;20232;-70
2021/11/03 09:21:23;;;;;;;3.03;2.67;;;;;;;9.13;89.91;94622.41;5035920;28;20440;-70
2021/11/03 09:23:50;;;;;;;2.70;2.00;;;;;;;8.64;88.46;94609.00;5036997;28;20205;-70
2021/11/03 09:26:20;;;;;;;2.17;1.67;;;;;;;9.18;88.46;94609.47;5036152;28;20205;-70
2021/11/03 09:28:47;;;;;;;2.30;1.73;;;;;;;9.21;86.92;94611.66;5039777;28;20977;-70
2021/11/03 09:31:14;;;;;;;1.40;1.30;;;;;;;9.08;88.45;94611.72;5039880;28;20205;-70
2021/11/03 09:33:43;;;;;;;2.03;1.77;;;;;;;8.84;89.85;94601.88;5040428;28;20200;-70
2021/11/03 09:36:14;;;;;;;3.57;1.80;;;;;;;9.39;88.65;94596.03;5039119;28;20212;-70
2021/11/03 09:38:41;;;;;;;2.67;1.33;;;;;;;8.74;90.13;94619.84;5039812;28;20229;-70
2021/11/03 09:41:13;;;;;;;4.33;1.73;;;;;;;9.47;89.61;94603.66;5040334;28;20921;-70
2021/11/03 09:43:43;;;;;;;2.33;1.77;;;;;;;9.49;88.85;94585.88;5039574;28;20205;-70
2021/11/03 09:46:18;;;;;;;3.70;2.27;;;;;;;9.71;87.03;94580.06;5038872;28;20237;-70
2021/11/03 09:48:50;;;;;;;2.67;1.40;;;;;;;9.82;86.95;94592.56;5040085;28;20217;-70
2021/11/03 09:51:19;;;;;;;2.30;1.53;;;;;;;9.73;86.99;94589.34;5039905;28;20205;-70
2021/11/03 09:53:49;;;;;;;1.97;1.53;;;;;;;9.93;88.13;94587.41;5039813;28;20213;-70
2021/11/03 09:56:25;;;;;;;3.33;2.10;;;;;;;10.13;84.63;94601.28;5039436;28;20925;-70
2021/11/03 09:59:05;;;;;;;2.23;1.47;;;;;;;9.81;85.80;94601.44;5039077;28;20224;-70
2021/11/03 10:01:44;;;;;;;2.97;1.80;;;;;;;9.59;87.11;94596.75;5039854;28;20205;-70
2021/11/03 10:04:43;;;;;;;2.30;1.50;;;;;;;9.63;87.71;94587.41;5039785;28;20212;-70
2021/11/03 10:07:24;;;;;;;1.83;1.70;;;;;;;10.25;86.28;94573.25;5036247;28;20225;-70
2021/11/03 10:09:50;;;;;;;1.57;1.17;;;;;;;9.89;88.18;94567.81;5039483;28;20201;-70
2021/11/03 10:12:19;;;;;;;3.27;1.40;;;;;;;9.66;87.68;94566.78;5039854;28;20212;-70
2021/11/03 10:14:47;;;;;;;2.70;1.50;;;;;;;9.90;85.66;94576.50;5039440;28;20210;-70
2021/11/03 10:17:20;;;;;;;4.13;2.43;;;;;;;9.80;88.03;94561.22;5038457;28;20221;-70
2021/11/03 10:19:47;;;;;;;2.90;1.63;;;;;;;9.14;89.69;94566.22;5039303;28;20197;-70
2021/11/03 10:22:31;;;;;;;4.97;2.47;;;;;;;9.61;87.90;94573.66;5039273;28;20204;-70
2021/11/03 10:25:06;;;;;;;2.37;1.23;;;;;;;9.05;89.55;94570.09;5038649;28;20227;-71
2021/11/03 10:27:42;;;;;;;2.07;1.73;;;;;;;9.38;89.36;94566.31;5038337;28;20237;-69
2021/11/03 10:30:23;;;;;;;1.20;0.90;;;;;;;9.20;89.09;94586.38;5038787;28;21311;-70
2021/11/03 10:32:50;;;;;;;2.23;1.77;;;;;;;9.15;88.53;94602.78;5039207;28;20927;-70
2021/11/03 10:35:21;;;;;;;3.50;1.93;;;;;;;9.60;87.31;94593.06;5038974;28;20978;-70
2021/11/03 10:37:59;;;;;;;3.23;1.87;;;;;;;9.56;89.08;94602.41;5038613;28;20224;-70
2021/11/03 10:40:30;;;;;;;4.63;2.10;;;;;;;9.43;90.38;94598.03;5038001;28;20688;-70
2021/11/03 10:43:01;;;;;;;7.10;1.77;;;;;;;9.41;91.45;94594.00;5039045;28;20212;-70
2021/11/03 10:45:31;;;;;;;2.00;1.47;;;;;;;9.28;90.13;94580.94;5038562;28;20602;-70
2021/11/03 10:48:12;;;;;;;2.93;1.53;;;;;;;9.64;88.33;94573.25;5038913;28;20920;-70
2021/11/03 10:50:41;;;;;;;3.37;1.73;;;;;;;9.34;89.28;94572.19;5038282;28;20582;-70
2021/11/03 10:53:22;;;;;;;2.33;1.47;;;;;;;9.69;88.32;94551.34;5039267;28;20207;-70
2021/11/03 10:55:59;;;;;;;2.93;1.27;;;;;;;9.47;90.64;94551.91;5037465;28;20197;-70
2021/11/03 10:58:28;;;;;;;2.13;1.93;;;;;;;8.81;91.76;94552.41;5038108;28;20235;-70
2021/11/03 11:01:07;;;;;;;2.60;1.93;;;;;;;9.24;90.55;94558.69;5039779;28;20232;-70
2021/11/03 11:03:38;;;;;;;4.93;2.20;;;;;;;9.28;92.03;94557.28;5038593;28;20223;-70
2021/11/03 11:06:11;;;;;;;2.60;2.00;;;;;;;9.37;91.54;94556.00;5037648;28;20205;-70
2021/11/03 11:08:49;;;;;;;2.27;1.93;;;;;;;9.19;90.77;94550.66;5038320;28;20217;-70
2021/11/03 11:11:20;;;;;;;2.30;1.73;;;;;;;9.13;92.70;94540.97;5038255;28;20236;-69
2021/11/03 11:13:53;;;;;;;3.53;2.10;;;;;;;9.14;92.29;94542.56;5037656;28;20666;-70
2021/11/03 11:16:28;;;;;;;2.17;1.67;;;;;;;9.22;90.67;94550.22;5038230;28;20220;-70
2021/11/03 11:19:04;;;;;;;4.27;2.07;;;;;;;9.19;91.19;94559.31;5037929;28;20228;-70
2021/11/03 11:21:44;;;;;;;2.43;1.90;;;;;;;9.05;91.79;94562.22;5038422;28;20209;-70
2021/11/03 11:24:19;;;;;;;2.03;1.77;;;;;;;9.41;90.63;94562.47;5038024;28;21117;-70
2021/11/03 11:26:55;;;;;;;3.57;2.00;;;;;;;9.35;89.91;94558.81;5037127;28;20752;-70
2021/11/03 11:29:29;;;;;;;2.50;1.17;;;;;;;9.28;89.83;94547.56;5038054;28;20197;-70
2021/11/03 11:32:03;;;;;;;1.30;0.90;;;;;;;9.41;89.91;94558.00;5038206;28;20248;-70
2021/11/03 11:34:48;;;;;;;2.40;1.63;;;;;;;9.49;89.07;94564.84;5037508;28;20208;-70
2021/11/03 11:37:24;;;;;;;3.30;2.10;;;;;;;9.51;90.08;94541.75;5036832;28;20221;-70
2021/11/03 11:39:58;;;;;;;2.23;1.77;;;;;;;9.74;89.21;94522.59;5037540;28;20303;-70
2021/11/03 11:42:37;;;;;;;3.00;2.00;;;;;;;10.06;88.76;94542.63;5037933;28;20201;-70
2021/11/03 11:45:13;;;;;;;3.13;1.83;;;;;;;10.35;85.80;94555.94;5037636;28;20205;-70
2021/11/03 11:47:43;;;;;;;2.50;2.13;;;;;;;10.46;83.68;94549.16;5036819;28;20224;-71
2021/11/03 11:50:21;;;;;;;2.87;2.27;;;;;;;10.53;86.61;94555.19;5036890;28;20220;-71